Eiwa Maru — JG5742 — position and weather

sailwx.info

Track history (hours):
 
Tides and Currents Weather Stations Pressure Air Temp Water Temp Dewpoint Dewpoint Depression Visibility Wind Speed Wind Dir Waves Ship Positions

Eiwa Maru

Last reported at 2017-Apr-27 19:32 UTC. Time now 2017-Apr-28 06:18 UTC.
Position N 33°59' E 135°00'.

Length 80 m; draft 5 m.

Type: Ship (hazmat cat A). MMSI: 431101045.

Date/timePositionNaut miles runAvg speedWind from/ knotsBaromVisibWave heightAir tempDewpointWater temp
2017-Apr-27 19:32N 33°59' E 135°00'113.2
2017-Apr-27 19:28N 33°60' E 135°00'813.5
2017-Apr-27 18:52N 34°08' E 134°59'513.7
2017-Apr-27 18:30N 34°13' E 134°59'814.3
2017-Apr-27 17:55N 34°21' E 134°59'614.2
2017-Apr-27 17:29N 34°27' E 135°01'714.5
2017-Apr-27 17:00N 34°34' E 135°02'611.3
2017-Apr-27 16:29N 34°35' E 134°56'3 0.1
2017-Apr-25 14:08N 34°37' E 134°58'710.5
2017-Apr-25 13:30N 34°34' E 135°06'712.8
2017-Apr-25 12:59N 34°28' E 135°04'1513.1
2017-Apr-25 11:48N 34°13' E 134°60'412.8
2017-Apr-25 11:29N 34°09' E 135°00'22510.2
2017-Apr-24 13:33N 34°59' E 139°26'011.9
2017-Apr-24 13:30N 34°60' E 139°26'611.9
2017-Apr-24 13:00N 35°03' E 139°33'612.6
2017-Apr-24 12:30N 35°06' E 139°40'612.3
2017-Apr-24 12:00N 35°10' E 139°45'612.1
2017-Apr-24 11:30N 35°16' E 139°46'612.2
2017-Apr-24 11:00N 35°21' E 139°42'611.6
2017-Apr-24 10:30N 35°26' E 139°46'612.8
2017-Apr-24 10:00N 35°30' E 139°53'7 0.8
2017-Apr-24 01:59N 35°32' E 140°00'2 4.0
2017-Apr-24 01:30N 35°31' E 139°58'0 0.0
2017-Apr-24 01:00N 35°31' E 139°58'0 0.0
2017-Apr-24 00:23N 35°31' E 139°58'0 0.0
2017-Apr-23 23:57N 35°31' E 139°58'0 0.0
2017-Apr-23 23:30N 35°31' E 139°58'2 3.4
2017-Apr-23 22:51N 35°31' E 139°56'412.6
2017-Apr-23 22:30N 35°28' E 139°51'612.7
2017-Apr-23 22:00N 35°24' E 139°46'611.6
2017-Apr-23 21:30N 35°18' E 139°45'611.7
2017-Apr-23 21:00N 35°13' E 139°47'612.5
2017-Apr-23 20:30N 35°07' E 139°45'612.8
2017-Apr-23 20:00N 35°02' E 139°40'23811.0
2017-Apr-22 22:26N 34°03' E 135°00'613.1
2017-Apr-22 22:00N 34°09' E 134°60'712.8
2017-Apr-22 21:28N 34°16' E 134°59'611.6
2017-Apr-22 20:56N 34°22' E 135°00'512.3
2017-Apr-22 20:30N 34°27' E 135°01'612.0
2017-Apr-22 19:59N 34°33' E 135°02'4 8.5
2017-Apr-22 19:30N 34°37' E 135°00'  
2017-Apr-19 08:38N 34°57' E 139°24'211.2
2017-Apr-19 08:28N 34°58' E 139°26'511.2
2017-Apr-19 08:00N 34°60' E 139°31'611.7
2017-Apr-19 07:30N 35°03' E 139°37'611.5
2017-Apr-19 07:00N 35°07' E 139°43'611.4
2017-Apr-19 06:30N 35°12' E 139°46'611.6
2017-Apr-19 06:00N 35°18' E 139°45'612.2
2017-Apr-19 05:30N 35°24' E 139°43'612.3
2017-Apr-19 05:00N 35°28' E 139°48'611.9
2017-Apr-19 04:30N 35°31' E 139°54'6 1.3
2017-Apr-19 00:22N 35°33' E 140°01'0 0.0
2017-Apr-18 23:58N 35°33' E 140°01'0 0.0
2017-Apr-18 22:31N 35°33' E 140°01'0 0.0
2017-Apr-18 17:46N 35°32' E 140°01'0 0.0
2017-Apr-18 17:08N 35°32' E 140°01'0 0.0
2017-Apr-18 17:00N 35°32' E 140°01'0 0.0
2017-Apr-18 16:10N 35°32' E 140°01'0 0.0
2017-Apr-18 09:34N 35°33' E 140°01'0 0.0
2017-Apr-18 09:29N 35°33' E 140°01'0 0.0
2017-Apr-18 08:53N 35°33' E 140°01'0 0.0
2017-Apr-18 08:04N 35°33' E 140°01'0 0.0
2017-Apr-18 07:43N 35°33' E 140°01'0 0.0
2017-Apr-17 21:09N 35°33' E 140°01'  
Track history (hours):
 
Tides and Currents Weather Stations Pressure Air Temp Water Temp Dewpoint Dewpoint Depression Visibility Wind Speed Wind Dir Waves Ship Positions

Eiwa Maru

Last reported at 2017-Apr-27 19:32 UTC. Time now 2017-Apr-28 06:18 UTC.
Position N 33°59' E 135°00'.

Length 80 m; draft 5 m.

Type: Ship (hazmat cat A). MMSI: 431101045.

Date/timePositionNaut miles runAvg speedWind from/ knotsBaromVisibWave heightAir tempDewpointWater temp
2017-Apr-27 19:32N 33°59' E 135°00'113.2
2017-Apr-27 19:28N 33°60' E 135°00'813.5
2017-Apr-27 18:52N 34°08' E 134°59'513.7
2017-Apr-27 18:30N 34°13' E 134°59'814.3
2017-Apr-27 17:55N 34°21' E 134°59'614.2
2017-Apr-27 17:29N 34°27' E 135°01'714.5
2017-Apr-27 17:00N 34°34' E 135°02'611.3
2017-Apr-27 16:29N 34°35' E 134°56'3 0.1
2017-Apr-25 14:08N 34°37' E 134°58'710.5
2017-Apr-25 13:30N 34°34' E 135°06'712.8
2017-Apr-25 12:59N 34°28' E 135°04'1513.1
2017-Apr-25 11:48N 34°13' E 134°60'412.8
2017-Apr-25 11:29N 34°09' E 135°00'22510.2
2017-Apr-24 13:33N 34°59' E 139°26'011.9
2017-Apr-24 13:30N 34°60' E 139°26'611.9
2017-Apr-24 13:00N 35°03' E 139°33'612.6
2017-Apr-24 12:30N 35°06' E 139°40'612.3
2017-Apr-24 12:00N 35°10' E 139°45'612.1
2017-Apr-24 11:30N 35°16' E 139°46'612.2
2017-Apr-24 11:00N 35°21' E 139°42'611.6
2017-Apr-24 10:30N 35°26' E 139°46'612.8
2017-Apr-24 10:00N 35°30' E 139°53'7 0.8
2017-Apr-24 01:59N 35°32' E 140°00'2 4.0
2017-Apr-24 01:30N 35°31' E 139°58'0 0.0
2017-Apr-24 01:00N 35°31' E 139°58'0 0.0
2017-Apr-24 00:23N 35°31' E 139°58'0 0.0
2017-Apr-23 23:57N 35°31' E 139°58'0 0.0
2017-Apr-23 23:30N 35°31' E 139°58'2 3.4
2017-Apr-23 22:51N 35°31' E 139°56'412.6
2017-Apr-23 22:30N 35°28' E 139°51'612.7
2017-Apr-23 22:00N 35°24' E 139°46'611.6
2017-Apr-23 21:30N 35°18' E 139°45'611.7
2017-Apr-23 21:00N 35°13' E 139°47'612.5
2017-Apr-23 20:30N 35°07' E 139°45'612.8
2017-Apr-23 20:00N 35°02' E 139°40'23811.0
2017-Apr-22 22:26N 34°03' E 135°00'613.1
2017-Apr-22 22:00N 34°09' E 134°60'712.8
2017-Apr-22 21:28N 34°16' E 134°59'611.6
2017-Apr-22 20:56N 34°22' E 135°00'512.3
2017-Apr-22 20:30N 34°27' E 135°01'612.0
2017-Apr-22 19:59N 34°33' E 135°02'4 8.5
2017-Apr-22 19:30N 34°37' E 135°00'  
2017-Apr-19 08:38N 34°57' E 139°24'211.2
2017-Apr-19 08:28N 34°58' E 139°26'511.2
2017-Apr-19 08:00N 34°60' E 139°31'611.7
2017-Apr-19 07:30N 35°03' E 139°37'611.5
2017-Apr-19 07:00N 35°07' E 139°43'611.4
2017-Apr-19 06:30N 35°12' E 139°46'611.6
2017-Apr-19 06:00N 35°18' E 139°45'612.2
2017-Apr-19 05:30N 35°24' E 139°43'612.3
2017-Apr-19 05:00N 35°28' E 139°48'611.9
2017-Apr-19 04:30N 35°31' E 139°54'6 1.3
2017-Apr-19 00:22N 35°33' E 140°01'0 0.0
2017-Apr-18 23:58N 35°33' E 140°01'0 0.0
2017-Apr-18 22:31N 35°33' E 140°01'0 0.0
2017-Apr-18 17:46N 35°32' E 140°01'0 0.0
2017-Apr-18 17:08N 35°32' E 140°01'0 0.0
2017-Apr-18 17:00N 35°32' E 140°01'0 0.0
2017-Apr-18 16:10N 35°32' E 140°01'0 0.0
2017-Apr-18 09:34N 35°33' E 140°01'0 0.0
2017-Apr-18 09:29N 35°33' E 140°01'0 0.0
2017-Apr-18 08:53N 35°33' E 140°01'0 0.0
2017-Apr-18 08:04N 35°33' E 140°01'0 0.0
2017-Apr-18 07:43N 35°33' E 140°01'0 0.0
2017-Apr-17 21:09N 35°33' E 140°01'  

Dump ship's entire track history